createdAt,value
2018-05-15T00:02:04.219Z,99.50
2018-05-15T00:04:31.759Z,99.90
2018-05-15T00:07:00.165Z,97.70
2018-05-15T00:09:28.005Z,97.70
2018-05-15T00:11:55.716Z,97.60
2018-05-15T00:14:23.309Z,97.30
2018-05-15T00:16:51.014Z,97.80
2018-05-15T00:19:18.601Z,99.30
2018-05-15T00:21:46.296Z,99.90
2018-05-15T00:24:13.968Z,99.90
2018-05-15T00:26:41.553Z,99.90
2018-05-15T00:29:09.175Z,99.90
2018-05-15T00:31:36.760Z,99.90
2018-05-15T00:34:05.140Z,99.90
2018-05-15T00:36:33.602Z,99.90
2018-05-15T00:39:01.228Z,99.90
2018-05-15T00:41:28.775Z,99.90
2018-05-15T00:43:56.347Z,99.90
2018-05-15T00:46:23.912Z,99.90
2018-05-15T00:48:51.723Z,99.90
2018-05-15T00:51:20.064Z,99.90
2018-05-15T00:53:47.636Z,99.90
2018-05-15T00:56:15.276Z,99.90
2018-05-15T00:58:42.832Z,99.90
2018-05-15T01:01:10.411Z,99.90
2018-05-15T01:03:38.008Z,99.90
2018-05-15T01:06:06.320Z,99.90
2018-05-15T01:08:34.178Z,99.90
2018-05-15T01:11:01.733Z,99.90
2018-05-15T01:13:29.315Z,99.90
2018-05-15T01:15:56.902Z,99.90
2018-05-15T01:18:24.463Z,99.90
2018-05-15T01:20:52.038Z,99.90
2018-05-15T01:23:19.579Z,99.90
2018-05-15T01:25:47.151Z,99.90
2018-05-15T01:28:14.749Z,99.90
2018-05-15T01:30:42.321Z,99.90
2018-05-15T01:33:09.891Z,99.90
2018-05-15T01:35:37.481Z,99.90
2018-05-15T01:38:05.044Z,99.90
2018-05-15T01:40:32.596Z,99.90
2018-05-15T01:43:00.259Z,99.90
2018-05-15T01:45:27.821Z,99.90
2018-05-15T01:47:55.383Z,99.90
2018-05-15T01:50:23.032Z,99.90
2018-05-15T01:52:50.594Z,99.90
2018-05-15T01:55:18.167Z,99.90
2018-05-15T01:57:45.727Z,99.90
2018-05-15T02:00:13.298Z,99.90
2018-05-15T02:02:40.880Z,99.90
2018-05-15T02:05:09.213Z,99.90
2018-05-15T02:07:36.781Z,99.90
2018-05-15T02:10:04.383Z,99.90
2018-05-15T02:12:32.799Z,99.90
2018-05-15T02:15:00.352Z,99.90
2018-05-15T02:17:27.922Z,99.90
2018-05-15T02:19:55.479Z,99.90
2018-05-15T02:22:23.060Z,99.90
2018-05-15T02:24:51.382Z,99.90
2018-05-15T02:27:18.961Z,99.90
2018-05-15T02:29:46.528Z,99.90
2018-05-15T02:32:14.090Z,99.90
2018-05-15T02:34:41.643Z,99.90
2018-05-15T02:37:09.224Z,99.90
2018-05-15T02:39:36.924Z,99.90
2018-05-15T02:42:04.584Z,99.90
2018-05-15T02:44:32.166Z,99.90
2018-05-15T02:47:00.436Z,99.90
2018-05-15T02:49:28.845Z,99.90
2018-05-15T02:51:56.379Z,99.90
2018-05-15T02:54:24.752Z,99.90
2018-05-15T02:56:53.072Z,99.90
2018-05-15T02:59:20.610Z,99.90
2018-05-15T03:01:48.180Z,99.90
2018-05-15T03:04:15.761Z,99.90
2018-05-15T03:06:43.411Z,99.90
2018-05-15T03:09:11.108Z,99.90
2018-05-15T03:11:38.805Z,99.90
2018-05-15T03:14:06.261Z,99.90
2018-05-15T03:16:34.595Z,99.90
2018-05-15T03:19:02.243Z,99.90
2018-05-15T03:21:29.820Z,99.90
2018-05-15T03:23:57.371Z,99.90
2018-05-15T03:26:24.957Z,99.90
2018-05-15T03:28:52.544Z,99.90
2018-05-15T03:31:20.183Z,99.90
2018-05-15T03:33:47.742Z,99.90
2018-05-15T03:36:15.335Z,99.90
2018-05-15T03:38:42.887Z,99.90
2018-05-15T03:41:10.462Z,99.90
2018-05-15T03:43:38.181Z,99.90
2018-05-15T03:46:06.510Z,99.90
2018-05-15T03:48:34.147Z,99.90
2018-05-15T03:51:02.487Z,99.90
2018-05-15T03:53:30.076Z,99.90
2018-05-15T03:55:57.604Z,99.90
2018-05-15T03:58:25.246Z,99.90
2018-05-15T04:01:04.584Z,99.90
2018-05-15T04:03:44.078Z,99.90
2018-05-15T04:09:15.907Z,99.90
2018-05-15T04:11:43.479Z,99.90
2018-05-15T04:14:11.055Z,99.90
2018-05-15T04:16:38.623Z,99.90
2018-05-15T04:19:06.207Z,99.90
2018-05-15T04:21:33.755Z,99.90
2018-05-15T04:24:02.108Z,99.90
2018-05-15T04:26:29.631Z,99.90
2018-05-15T04:28:57.256Z,99.90
2018-05-15T04:31:25.743Z,99.90
2018-05-15T04:33:54.068Z,99.90
2018-05-15T04:36:21.631Z,99.90
2018-05-15T04:38:49.210Z,99.90
2018-05-15T04:41:16.764Z,99.90
2018-05-15T04:43:44.440Z,99.90
2018-05-15T04:46:11.902Z,99.90
2018-05-15T04:48:39.481Z,99.90
2018-05-15T04:51:07.861Z,99.90
2018-05-15T04:53:36.181Z,99.90
2018-05-15T04:56:03.744Z,99.90
2018-05-15T04:58:31.407Z,99.90
2018-05-15T05:00:59.069Z,99.90
2018-05-15T05:03:26.617Z,99.90
2018-05-15T05:05:54.178Z,99.90
2018-05-15T05:08:21.733Z,99.90
2018-05-15T05:10:49.328Z,99.90
2018-05-15T05:13:16.884Z,99.90
2018-05-15T05:15:44.484Z,99.90
2018-05-15T05:18:12.832Z,99.90
2018-05-15T05:20:40.499Z,99.90
2018-05-15T05:23:08.843Z,99.90
2018-05-15T05:25:36.416Z,99.90
2018-05-15T05:28:03.979Z,99.90
2018-05-15T05:30:31.568Z,99.80
2018-05-15T05:32:59.144Z,99.90
2018-05-15T05:35:27.576Z,98.00
2018-05-15T05:37:55.129Z,97.90
2018-05-15T05:40:22.703Z,95.70
2018-05-15T05:42:50.272Z,94.50
2018-05-15T05:45:17.819Z,92.40
2018-05-15T05:47:45.654Z,86.50
2018-05-15T05:50:13.215Z,87.20
2018-05-15T05:52:40.778Z,82.20
2018-05-15T05:55:08.452Z,81.20
2018-05-15T05:57:36.025Z,78.50
2018-05-15T06:00:03.560Z,76.60
2018-05-15T06:02:31.143Z,79.50
2018-05-15T06:04:58.699Z,78.00
2018-05-15T06:07:26.292Z,75.40
2018-05-15T06:09:53.820Z,73.30
2018-05-15T06:12:21.379Z,73.30
2018-05-15T06:14:48.933Z,73.00
2018-05-15T06:17:16.500Z,72.70
2018-05-15T06:19:44.064Z,72.30
2018-05-15T06:22:11.621Z,70.60
2018-05-15T06:24:39.299Z,70.40
2018-05-15T06:27:06.965Z,69.10
2018-05-15T06:29:34.551Z,70.00
2018-05-15T06:32:02.912Z,70.30
2018-05-15T06:34:30.523Z,70.30
2018-05-15T06:36:58.305Z,71.90
2018-05-15T06:39:25.953Z,70.90
2018-05-15T06:41:53.534Z,71.20
2018-05-15T06:44:21.084Z,72.60
2018-05-15T06:46:48.748Z,70.60
2018-05-15T06:49:16.316Z,70.80
2018-05-15T06:51:43.869Z,72.40
2018-05-15T06:54:11.613Z,70.50
2018-05-15T06:56:39.164Z,72.90
2018-05-15T06:59:06.823Z,74.80
2018-05-15T07:01:34.497Z,80.50
2018-05-15T07:04:02.076Z,75.10
2018-05-15T07:06:29.662Z,74.70
2018-05-15T07:08:57.308Z,75.70
2018-05-15T07:11:24.855Z,75.20
2018-05-15T07:13:52.422Z,74.10
2018-05-15T07:16:19.982Z,75.10
2018-05-15T07:18:47.558Z,75.50
2018-05-15T07:21:15.107Z,75.40
2018-05-15T07:23:42.682Z,76.50
2018-05-15T07:26:10.403Z,76.30
2018-05-15T07:28:37.940Z,73.00
2018-05-15T07:31:06.345Z,73.60
2018-05-15T07:33:33.884Z,73.50
2018-05-15T07:36:01.460Z,74.40
2018-05-15T07:38:29.151Z,75.80
2018-05-15T07:40:56.720Z,76.00
2018-05-15T07:43:24.356Z,74.60
2018-05-15T07:45:51.951Z,73.30
2018-05-15T07:48:19.608Z,72.90
2018-05-15T07:50:47.175Z,73.00
2018-05-15T07:53:14.739Z,75.40
2018-05-15T07:55:42.302Z,71.70
2018-05-15T07:58:09.858Z,76.10
2018-05-15T08:00:37.435Z,71.60
2018-05-15T08:03:05.759Z,73.00
2018-05-15T08:05:33.317Z,72.80
2018-05-15T08:08:01.026Z,74.40
2018-05-15T08:10:28.710Z,73.50
2018-05-15T08:12:57.120Z,75.40
2018-05-15T08:15:24.782Z,75.30
2018-05-15T08:17:52.390Z,71.80
2018-05-15T08:20:19.933Z,70.50
2018-05-15T08:22:47.501Z,70.00
2018-05-15T08:25:15.824Z,72.70
2018-05-15T08:27:43.388Z,72.80
2018-05-15T08:30:10.950Z,69.70
2018-05-15T08:32:38.522Z,71.50
2018-05-15T08:35:06.077Z,73.00
2018-05-15T08:37:33.674Z,69.80
2018-05-15T08:40:01.208Z,68.70
2018-05-15T08:42:28.771Z,67.20
2018-05-15T08:44:56.361Z,71.20
2018-05-15T08:47:23.939Z,70.30
2018-05-15T08:49:51.506Z,71.30
2018-05-15T08:52:19.849Z,70.80
2018-05-15T08:54:47.426Z,70.80
2018-05-15T08:57:15.016Z,67.60
2018-05-15T08:59:43.530Z,66.80
2018-05-15T09:02:11.136Z,66.80
2018-05-15T09:04:38.690Z,63.00
2018-05-15T09:07:06.323Z,59.50
2018-05-15T09:09:33.904Z,62.50
2018-05-15T09:12:01.525Z,62.40
2018-05-15T09:14:29.124Z,68.50
2018-05-15T09:16:56.699Z,62.50
2018-05-15T09:19:25.058Z,59.70
2018-05-15T09:21:52.607Z,59.40
2018-05-15T09:24:20.192Z,58.40
2018-05-15T09:26:47.736Z,58.30
2018-05-15T09:29:15.320Z,58.20
2018-05-15T09:31:42.856Z,57.90
2018-05-15T09:34:10.568Z,58.00
2018-05-15T09:36:38.132Z,57.50
2018-05-15T09:39:05.720Z,58.80
2018-05-15T09:41:33.307Z,57.20
2018-05-15T09:44:00.838Z,57.40
2018-05-15T09:46:28.489Z,57.30
2018-05-15T09:48:56.041Z,57.70
2018-05-15T09:51:23.632Z,57.70
2018-05-15T09:53:51.171Z,58.10
2018-05-15T09:56:18.870Z,58.70
2018-05-15T09:58:46.467Z,57.50
2018-05-15T10:01:14.051Z,56.70
2018-05-15T10:03:41.626Z,58.60
2018-05-15T10:06:09.159Z,55.40
2018-05-15T10:08:36.865Z,55.70
2018-05-15T10:11:04.378Z,55.60
2018-05-15T10:13:32.041Z,55.90
2018-05-15T10:15:59.596Z,54.90
2018-05-15T10:18:27.185Z,56.70
2018-05-15T10:20:54.753Z,55.90
2018-05-15T10:23:22.308Z,55.60
2018-05-15T10:25:49.895Z,56.80
2018-05-15T10:28:17.433Z,56.00
2018-05-15T10:30:45.002Z,56.10
2018-05-15T10:33:12.579Z,55.40
2018-05-15T10:35:40.203Z,57.40
2018-05-15T10:38:07.765Z,56.10
2018-05-15T10:40:35.312Z,55.20
2018-05-15T10:43:02.943Z,54.90
2018-05-15T10:45:30.484Z,54.90
2018-05-15T10:47:58.205Z,51.90
2018-05-15T10:50:25.872Z,53.10
2018-05-15T10:52:53.500Z,52.70
2018-05-15T10:55:21.826Z,53.30
2018-05-15T10:57:49.428Z,53.30
2018-05-15T11:00:17.862Z,54.40
2018-05-15T11:02:46.284Z,54.30
2018-05-15T11:05:13.844Z,52.10
2018-05-15T11:07:41.409Z,50.00
2018-05-15T11:10:09.749Z,50.30
2018-05-15T11:12:37.345Z,50.30
2018-05-15T11:15:04.844Z,49.60
2018-05-15T11:17:32.395Z,51.50
2018-05-15T11:20:11.729Z,50.40
2018-05-15T11:22:51.124Z,48.90
2018-05-15T11:25:18.735Z,49.30
2018-05-15T11:27:46.290Z,48.70
2018-05-15T11:30:13.850Z,46.70
2018-05-15T11:32:41.435Z,49.20
2018-05-15T11:35:09.100Z,49.20
2018-05-15T11:37:36.652Z,49.20
2018-05-15T11:40:04.338Z,48.20
2018-05-15T11:42:31.884Z,50.80
2018-05-15T11:44:59.482Z,49.40
2018-05-15T11:47:27.044Z,50.00
2018-05-15T11:49:55.698Z,48.10
2018-05-15T11:52:23.245Z,48.10
2018-05-15T11:54:49.995Z,47.10
2018-05-15T11:57:17.653Z,46.60
2018-05-15T11:59:45.237Z,49.40
2018-05-15T12:02:12.785Z,48.30
2018-05-15T12:04:40.340Z,46.90
2018-05-15T12:07:07.911Z,49.30
2018-05-15T12:09:35.467Z,47.70
2018-05-15T12:12:03.095Z,48.90
2018-05-15T12:14:30.648Z,49.40
2018-05-15T12:17:01.399Z,47.70
2018-05-15T12:19:28.956Z,46.70
2018-05-15T12:21:56.620Z,47.70
2018-05-15T12:24:24.548Z,47.10
2018-05-15T12:26:52.607Z,48.10
2018-05-15T12:29:20.123Z,46.80
2018-05-15T12:31:47.672Z,46.60
2018-05-15T12:34:15.295Z,47.60
2018-05-15T12:36:42.904Z,46.40
2018-05-15T12:39:10.552Z,47.60
2018-05-15T12:41:38.213Z,48.10
2018-05-15T12:44:05.677Z,47.70
2018-05-15T12:46:33.282Z,47.60
2018-05-15T12:49:00.854Z,49.10
2018-05-15T12:51:28.416Z,48.80
2018-05-15T12:53:56.071Z,49.80
2018-05-15T12:56:24.418Z,52.30
2018-05-15T12:58:52.363Z,52.20
2018-05-15T13:01:19.901Z,48.90
2018-05-15T13:03:48.218Z,49.80
2018-05-15T13:06:15.780Z,49.90
2018-05-15T13:08:43.537Z,51.70
2018-05-15T13:11:11.116Z,50.00
2018-05-15T13:13:38.709Z,49.70
2018-05-15T13:16:06.279Z,49.40
2018-05-15T13:18:34.626Z,48.10
2018-05-15T13:21:02.172Z,47.90
2018-05-15T13:23:29.871Z,48.20
2018-05-15T13:25:57.419Z,48.80
2018-05-15T13:28:25.051Z,50.00
2018-05-15T13:30:52.629Z,50.20
2018-05-15T13:33:20.251Z,50.30
2018-05-15T13:35:47.827Z,51.30
2018-05-15T13:38:15.329Z,51.20
2018-05-15T13:40:43.647Z,51.10
2018-05-15T13:43:11.228Z,51.10
2018-05-15T13:45:38.814Z,53.40
2018-05-15T13:48:06.369Z,50.40
2018-05-15T13:50:33.909Z,50.60
2018-05-15T13:53:01.449Z,49.10
2018-05-15T13:55:29.048Z,49.60
2018-05-15T13:57:56.623Z,50.70
2018-05-15T14:00:24.227Z,50.80
2018-05-15T14:02:51.823Z,49.30
2018-05-15T14:05:19.582Z,49.30
2018-05-15T14:07:47.339Z,50.40
2018-05-15T14:10:14.920Z,48.90
2018-05-15T14:12:42.491Z,48.60
2018-05-15T14:15:10.066Z,48.70
2018-05-15T14:17:38.486Z,49.10
2018-05-15T14:20:06.035Z,49.10
2018-05-15T14:22:33.631Z,49.80
2018-05-15T14:25:01.208Z,49.80
2018-05-15T14:27:28.819Z,50.60
2018-05-15T14:29:56.400Z,51.10
2018-05-15T14:32:23.961Z,51.20
2018-05-15T14:34:51.532Z,51.70
2018-05-15T14:37:19.076Z,51.40
2018-05-15T14:39:46.655Z,51.10
2018-05-15T14:42:26.107Z,51.70
2018-05-15T14:44:53.704Z,52.50
2018-05-15T14:47:21.255Z,53.00
2018-05-15T14:49:49.621Z,52.70
2018-05-15T14:52:17.940Z,52.90
2018-05-15T14:54:45.545Z,52.90
2018-05-15T14:57:13.096Z,52.80
2018-05-15T14:59:40.655Z,51.10
2018-05-15T15:02:08.263Z,50.90
2018-05-15T15:04:36.626Z,50.10
2018-05-15T15:07:04.939Z,49.70
2018-05-15T15:09:32.560Z,49.60
2018-05-15T15:12:00.939Z,49.90
2018-05-15T15:14:29.338Z,50.90
2018-05-15T15:16:56.905Z,50.70
2018-05-15T15:19:24.464Z,52.20
2018-05-15T15:21:52.038Z,52.00
2018-05-15T15:24:19.606Z,51.70
2018-05-15T15:26:47.195Z,50.30
2018-05-15T15:29:14.811Z,50.80
2018-05-15T15:31:43.156Z,51.40
2018-05-15T15:34:11.475Z,50.70
2018-05-15T15:36:39.048Z,50.70
2018-05-15T15:39:06.624Z,51.80
2018-05-15T15:41:34.247Z,52.20
2018-05-15T15:44:01.830Z,51.40
2018-05-15T15:46:29.388Z,51.60
2018-05-15T15:48:57.030Z,50.00
2018-05-15T15:51:25.585Z,50.60
2018-05-15T15:53:54.013Z,49.70
2018-05-15T15:56:21.572Z,49.60
2018-05-15T15:58:49.191Z,48.80
2018-05-15T16:01:17.606Z,49.10
2018-05-15T16:03:46.247Z,49.10
2018-05-15T16:06:14.882Z,50.80
2018-05-15T16:08:42.738Z,50.80
2018-05-15T16:11:10.305Z,50.60
2018-05-15T16:13:37.897Z,51.10
2018-05-15T16:16:05.452Z,51.30
2018-05-15T16:18:33.029Z,51.60
2018-05-15T16:21:00.575Z,52.00
2018-05-15T16:23:28.203Z,51.90
2018-05-15T16:25:55.812Z,51.90
2018-05-15T16:28:23.465Z,52.00
2018-05-15T16:30:51.013Z,53.30
2018-05-15T16:33:18.595Z,52.60
2018-05-15T16:35:46.168Z,51.40
2018-05-15T16:38:14.494Z,52.40
2018-05-15T16:40:42.142Z,52.40
2018-05-15T16:43:09.694Z,51.20
2018-05-15T16:45:37.274Z,51.20
2018-05-15T16:48:04.861Z,51.50
2018-05-15T16:50:32.435Z,50.90
2018-05-15T16:52:59.992Z,50.80
2018-05-15T16:55:28.058Z,51.10
2018-05-15T16:57:55.639Z,51.40
2018-05-15T17:00:23.205Z,51.20
2018-05-15T17:02:51.516Z,51.70
2018-05-15T17:05:19.261Z,52.20
2018-05-15T17:07:46.990Z,52.00
2018-05-15T17:10:14.555Z,51.90
2018-05-15T17:12:42.121Z,51.90
2018-05-15T17:15:10.708Z,53.80
2018-05-15T17:17:38.300Z,52.80
2018-05-15T17:20:05.864Z,53.40
2018-05-15T17:22:33.427Z,52.10
2018-05-15T17:25:00.999Z,52.40
2018-05-15T17:27:28.574Z,52.40
2018-05-15T17:29:56.140Z,52.90
2018-05-15T17:32:23.724Z,53.60
2018-05-15T17:34:51.291Z,53.10
2018-05-15T17:37:18.868Z,53.90
2018-05-15T17:39:46.450Z,54.30
2018-05-15T17:42:14.035Z,54.70
2018-05-15T17:44:41.572Z,55.50
2018-05-15T17:47:09.167Z,55.30
2018-05-15T17:49:36.738Z,55.50
2018-05-15T17:52:04.329Z,55.20
2018-05-15T17:54:31.972Z,55.30
2018-05-15T17:57:00.320Z,56.40
2018-05-15T17:59:27.951Z,55.70
2018-05-15T18:01:55.536Z,55.80
2018-05-15T18:04:23.318Z,56.00
2018-05-15T18:06:50.872Z,55.80
2018-05-15T18:09:18.477Z,55.80
2018-05-15T18:11:46.088Z,56.80
2018-05-15T18:14:13.673Z,56.70
2018-05-15T18:16:41.216Z,56.40
2018-05-15T18:19:08.801Z,57.00
2018-05-15T18:21:36.387Z,56.90
2018-05-15T18:24:04.091Z,57.00
2018-05-15T18:26:31.671Z,56.80
2018-05-15T18:29:00.045Z,57.10
2018-05-15T18:31:27.620Z,56.90
2018-05-15T18:33:55.948Z,58.40
2018-05-15T18:36:23.539Z,57.70
2018-05-15T18:38:51.110Z,58.10
2018-05-15T18:41:18.707Z,58.10
2018-05-15T18:43:46.436Z,58.30
2018-05-15T18:46:14.032Z,58.70
2018-05-15T18:48:41.621Z,59.60
2018-05-15T18:51:09.195Z,58.90
2018-05-15T18:53:36.793Z,61.00
2018-05-15T18:56:04.381Z,59.60
2018-05-15T18:58:31.960Z,60.30
2018-05-15T19:00:59.548Z,60.20
2018-05-15T19:03:27.168Z,60.30
2018-05-15T19:05:54.733Z,60.40
2018-05-15T19:08:22.307Z,61.30
2018-05-15T19:10:49.895Z,62.10
2018-05-15T19:13:17.485Z,61.40
2018-05-15T19:15:45.799Z,64.00
2018-05-15T19:18:13.440Z,64.00
2018-05-15T19:20:41.769Z,63.80
2018-05-15T19:23:09.472Z,63.80
2018-05-15T19:25:37.796Z,67.30
2018-05-15T19:28:06.197Z,67.20
2018-05-15T19:30:33.744Z,67.00
2018-05-15T19:33:03.960Z,67.10
2018-05-15T19:35:37.256Z,66.10
2018-05-15T19:38:04.957Z,66.60
2018-05-15T19:40:33.829Z,67.40
2018-05-15T19:43:01.460Z,67.30
2018-05-15T19:45:29.052Z,67.70
2018-05-15T19:47:56.624Z,69.30
2018-05-15T19:50:24.989Z,70.50
2018-05-15T19:52:52.543Z,70.50
2018-05-15T19:55:20.249Z,70.30
2018-05-15T19:57:47.816Z,69.00
2018-05-15T20:00:15.497Z,69.80
2018-05-15T20:02:43.045Z,70.00
2018-05-15T20:05:10.711Z,69.90
2018-05-15T20:07:38.292Z,71.00
2018-05-15T20:10:05.887Z,70.80
2018-05-15T20:12:33.506Z,71.00
2018-05-15T20:15:01.084Z,71.30
2018-05-15T20:17:28.743Z,72.00
2018-05-15T20:19:56.338Z,73.40
2018-05-15T20:22:24.683Z,72.40
2018-05-15T20:24:52.283Z,72.30
2018-05-15T20:27:20.792Z,73.60
2018-05-15T20:29:48.362Z,73.50
2018-05-15T20:32:15.932Z,74.70
2018-05-15T20:34:43.587Z,75.80
2018-05-15T20:37:11.163Z,76.40
2018-05-15T20:39:38.718Z,76.30
2018-05-15T20:42:06.302Z,79.90
2018-05-15T20:44:33.849Z,81.60
2018-05-15T20:47:01.432Z,81.90
2018-05-15T20:49:29.009Z,82.00
2018-05-15T20:51:57.443Z,86.80
2018-05-15T20:54:25.180Z,86.40
2018-05-15T20:56:52.851Z,88.90
2018-05-15T20:59:20.444Z,90.30
2018-05-15T21:01:48.029Z,91.10
2018-05-15T21:04:16.376Z,92.50
2018-05-15T21:06:43.944Z,92.50
2018-05-15T21:09:11.615Z,93.80
2018-05-15T21:11:41.017Z,94.10
2018-05-15T21:14:08.601Z,94.30
2018-05-15T21:16:36.928Z,96.10
2018-05-15T21:19:04.524Z,96.10
2018-05-15T21:21:32.173Z,96.50
2018-05-15T21:23:59.781Z,96.80
2018-05-15T21:26:28.116Z,98.40
2018-05-15T21:28:55.828Z,98.40
2018-05-15T21:31:23.460Z,98.30
2018-05-15T21:33:51.789Z,99.40
2018-05-15T21:36:19.475Z,99.40
2018-05-15T21:38:47.116Z,98.90
2018-05-15T21:41:14.698Z,99.20
2018-05-15T21:43:42.352Z,99.80
2018-05-15T21:46:10.088Z,99.90
2018-05-15T21:48:37.705Z,99.90
2018-05-15T21:51:05.550Z,99.90
2018-05-15T21:53:33.226Z,99.90
2018-05-15T21:56:00.804Z,99.90
2018-05-15T21:58:29.142Z,99.90
2018-05-15T22:00:56.752Z,99.90
2018-05-15T22:03:25.091Z,99.90
2018-05-15T22:05:52.690Z,99.90
2018-05-15T22:08:21.059Z,99.90
2018-05-15T22:10:49.396Z,99.90
2018-05-15T22:13:28.991Z,99.90
2018-05-15T22:16:08.331Z,99.90
2018-05-15T22:18:48.535Z,99.90
2018-05-15T22:21:27.896Z,99.90
2018-05-15T22:23:54.937Z,99.90
2018-05-15T22:26:22.508Z,99.90
2018-05-15T22:28:50.220Z,99.90
2018-05-15T22:31:17.764Z,99.90
2018-05-15T22:33:45.370Z,99.90
2018-05-15T22:36:13.000Z,99.90
2018-05-15T22:38:40.600Z,99.90
2018-05-15T22:41:08.236Z,99.50
2018-05-15T22:43:35.827Z,98.20
2018-05-15T22:46:04.164Z,96.90
2018-05-15T22:48:31.759Z,96.90
2018-05-15T22:50:59.487Z,97.10
2018-05-15T22:53:27.060Z,96.90
2018-05-15T22:55:54.756Z,96.90
2018-05-15T22:58:22.361Z,97.00
2018-05-15T23:00:49.936Z,96.70
2018-05-15T23:03:17.510Z,96.60
2018-05-15T23:05:45.152Z,96.70
2018-05-15T23:08:12.703Z,95.80
2018-05-15T23:10:40.264Z,96.00
2018-05-15T23:13:07.935Z,96.20
2018-05-15T23:15:35.501Z,96.20
2018-05-15T23:18:03.118Z,96.30
2018-05-15T23:20:30.684Z,96.00
2018-05-15T23:22:59.008Z,96.60
2018-05-15T23:25:26.568Z,96.50
2018-05-15T23:27:54.119Z,96.20
2018-05-15T23:30:21.793Z,96.00
2018-05-15T23:32:49.351Z,95.80
2018-05-15T23:35:19.173Z,96.40
2018-05-15T23:37:46.723Z,96.10
2018-05-15T23:40:14.504Z,96.30
2018-05-15T23:42:42.086Z,96.40
2018-05-15T23:45:09.841Z,96.40
2018-05-15T23:47:37.491Z,96.80
2018-05-15T23:50:05.225Z,96.80
2018-05-15T23:52:32.814Z,97.10
2018-05-15T23:55:00.388Z,97.20
2018-05-15T23:57:28.006Z,97.30
2018-05-15T23:59:55.594Z,97.90
